Time;durP1;ratioP1;P1;durP2;ratioP2;P2;SDS_P1;SDS_P2;PMS_P1;PMS_P2;Temp;Humidity;BMP_temperature;BMP_pressure;BME280_temperature;BME280_humidity;BME280_pressure;Samples;Min_cycle;Max_cycle;Signal;HPM_P1;HPM_P2
2024/03/25 00:00:40;;;;;;;1999.90;999.90;;;7.00;99.90;;;;;;5034246;28;20040;-70
2024/03/25 00:03:05;;;;;;;1999.90;999.90;;;6.90;99.90;;;;;;5036738;28;20029;-70
2024/03/25 00:05:32;;;;;;;1999.90;999.90;;;6.90;99.90;;;;;;5036742;28;20395;-70
2024/03/25 00:07:58;;;;;;;1999.90;999.90;;;6.90;99.90;;;;;;5036857;28;20021;-66
2024/03/25 00:10:24;;;;;;;1999.90;999.90;;;6.80;99.90;;;;;;5036772;28;20443;-66
2024/03/25 00:12:54;;;;;;;1999.90;999.90;;;6.80;99.90;;;;;;5036597;28;20026;-66
2024/03/25 00:15:20;;;;;;;1999.90;999.90;;;6.70;99.90;;;;;;5036284;28;20091;-70
2024/03/25 00:17:47;;;;;;;1999.90;999.90;;;6.70;99.90;;;;;;5036263;28;20053;-70
2024/03/25 00:20:14;;;;;;;1999.90;999.90;;;6.70;99.90;;;;;;5036380;28;20038;-66
2024/03/25 00:22:40;;;;;;;1999.90;999.90;;;6.60;99.90;;;;;;5035921;28;20522;-66
2024/03/25 00:25:06;;;;;;;1999.90;999.90;;;6.60;99.90;;;;;;5036209;28;20057;-66
2024/03/25 00:27:33;;;;;;;1999.90;999.90;;;6.60;99.90;;;;;;5036483;28;20100;-69
2024/03/25 00:29:58;;;;;;;1999.90;999.90;;;6.50;99.90;;;;;;5036448;28;20030;-66
2024/03/25 00:32:24;;;;;;;1999.90;999.90;;;6.50;99.90;;;;;;5036178;28;20083;-70
2024/03/25 00:34:50;;;;;;;1999.90;999.90;;;6.50;99.90;;;;;;5036205;28;20032;-66
2024/03/25 00:37:15;;;;;;;1999.90;999.90;;;6.40;99.90;;;;;;5035913;28;20097;-67
2024/03/25 00:39:41;;;;;;;1999.90;999.90;;;6.40;99.90;;;;;;5036083;28;20037;-70
2024/03/25 00:42:07;;;;;;;1999.90;999.90;;;6.40;99.90;;;;;;5035935;28;20029;-70
2024/03/25 00:44:32;;;;;;;1999.90;999.90;;;6.50;99.90;;;;;;5035126;28;20030;-70
2024/03/25 00:46:58;;;;;;;1999.90;999.90;;;6.50;99.90;;;;;;5035772;28;20396;-70
2024/03/25 00:49:24;;;;;;;1999.90;999.90;;;6.50;99.90;;;;;;5035845;28;20116;-66
2024/03/25 00:51:50;;;;;;;1999.90;999.90;;;6.50;99.90;;;;;;5036030;28;20036;-66
2024/03/25 00:54:15;;;;;;;1999.90;999.90;;;6.50;99.90;;;;;;5035916;28;20037;-70
2024/03/25 00:56:41;;;;;;;1999.90;999.90;;;6.60;99.90;;;;;;5036011;28;20029;-70
2024/03/25 00:59:07;;;;;;;1999.90;999.90;;;6.60;99.90;;;;;;5035932;28;20037;-66
2024/03/25 01:01:35;;;;;;;1999.90;999.90;;;6.60;99.90;;;;;;5035322;28;20036;-66
2024/03/25 01:04:01;;;;;;;1999.90;999.90;;;6.60;99.90;;;;;;5035903;28;20033;-66
2024/03/25 01:06:27;;;;;;;1999.90;999.90;;;6.70;99.90;;;;;;5034651;28;20036;-70
2024/03/25 01:08:52;;;;;;;1999.90;999.90;;;6.70;99.90;;;;;;5035413;28;20481;-70
2024/03/25 01:11:18;;;;;;;1999.90;999.90;;;6.70;99.90;;;;;;5035551;28;20100;-66
2024/03/25 01:13:44;;;;;;;1999.90;999.90;;;6.70;99.90;;;;;;5035771;28;20117;-66
2024/03/25 01:16:10;;;;;;;1999.90;999.90;;;6.60;99.90;;;;;;5035219;28;20105;-70
2024/03/25 01:18:36;;;;;;;1999.90;999.90;;;6.60;99.90;;;;;;5035094;28;20050;-66
2024/03/25 01:21:01;;;;;;;1999.90;999.90;;;6.60;99.90;;;;;;5035031;28;20028;-70
2024/03/25 01:23:27;;;;;;;1999.90;999.90;;;6.70;99.90;;;;;;5034867;28;20034;-66
2024/03/25 01:25:53;;;;;;;1999.90;999.90;;;6.70;99.90;;;;;;5035618;28;20025;-70
2024/03/25 01:28:18;;;;;;;1999.90;999.90;;;6.70;99.90;;;;;;5035272;28;20499;-70
2024/03/25 01:30:44;;;;;;;1999.90;999.90;;;6.70;99.90;;;;;;5035389;28;20021;-66
2024/03/25 01:33:10;;;;;;;1999.90;999.90;;;6.70;99.90;;;;;;5035011;28;20041;-66
2024/03/25 01:35:36;;;;;;;1999.90;999.90;;;6.60;99.90;;;;;;5034803;28;20034;-66
2024/03/25 01:38:02;;;;;;;1999.90;999.90;;;6.60;99.90;;;;;;5034981;28;20033;-66
2024/03/25 01:40:28;;;;;;;1999.90;999.90;;;6.60;99.90;;;;;;5034912;28;20040;-66
2024/03/25 01:43:01;;;;;;;1999.90;999.90;;;6.60;99.90;;;;;;5034801;28;20045;-66
2024/03/25 01:45:30;;;;;;;1999.90;999.90;;;6.60;99.90;;;;;;5034762;28;20025;-70
2024/03/25 01:48:04;;;;;;;1999.90;999.90;;;6.60;99.90;;;;;;5034677;28;20033;-66
2024/03/25 01:50:32;;;;;;;1999.90;999.90;;;6.60;99.90;;;;;;5034905;28;20052;-66
2024/03/25 01:52:59;;;;;;;1999.90;999.90;;;6.60;99.90;;;;;;5034705;28;20038;-66
2024/03/25 01:55:27;;;;;;;1999.90;999.90;;;6.60;99.90;;;;;;5034512;28;20037;-66
2024/03/25 01:57:53;;;;;;;1999.90;999.90;;;6.60;99.90;;;;;;5034923;28;20034;-66
2024/03/25 02:00:20;;;;;;;1999.90;999.90;;;6.60;99.90;;;;;;5034623;28;20144;-68
2024/03/25 02:02:46;;;;;;;1999.90;999.90;;;6.60;99.90;;;;;;5034489;28;20022;-66
2024/03/25 02:05:16;;;;;;;1999.90;999.90;;;6.60;99.90;;;;;;5034691;28;20446;-66
2024/03/25 02:07:43;;;;;;;1999.90;999.90;;;6.60;99.90;;;;;;5034331;28;20063;-66
2024/03/25 02:10:10;;;;;;;1999.90;999.90;;;6.60;99.90;;;;;;5034512;28;20030;-66
2024/03/25 02:12:36;;;;;;;1999.90;999.90;;;6.60;99.90;;;;;;5034612;28;20033;-70
2024/03/25 02:15:05;;;;;;;1999.90;999.90;;;6.60;99.90;;;;;;5034557;28;20025;-66
2024/03/25 02:17:30;;;;;;;1999.90;999.90;;;6.60;99.90;;;;;;5034060;28;20034;-66
2024/03/25 02:19:56;;;;;;;1999.90;999.90;;;6.50;99.90;;;;;;5034212;28;20038;-70
2024/03/25 02:22:22;;;;;;;1999.90;999.90;;;6.50;99.90;;;;;;5033540;28;20104;-66
2024/03/25 02:24:50;;;;;;;1999.90;999.90;;;6.40;99.90;;;;;;5033706;28;20075;-70
2024/03/25 02:27:16;;;;;;;1999.90;999.90;;;6.40;99.90;;;;;;5034160;28;20029;-70
2024/03/25 02:29:42;;;;;;;1999.90;999.90;;;6.30;99.90;;;;;;5033994;28;20528;-66
2024/03/25 02:32:10;;;;;;;1999.90;999.90;;;6.40;99.90;;;;;;5033788;28;20117;-70
2024/03/25 02:34:37;;;;;;;1999.90;999.90;;;6.30;99.90;;;;;;5033925;28;20025;-66
2024/03/25 02:37:03;;;;;;;1999.90;999.90;;;6.30;99.90;;;;;;5033600;28;20044;-66
2024/03/25 02:39:29;;;;;;;1999.90;999.90;;;6.20;99.90;;;;;;5033730;28;20033;-66
2024/03/25 02:41:55;;;;;;;1999.90;999.90;;;6.20;99.90;;;;;;5033678;28;20087;-66
2024/03/25 02:44:22;;;;;;;1999.90;999.90;;;6.20;99.90;;;;;;5033508;28;20097;-66
2024/03/25 02:46:49;;;;;;;1999.90;999.90;;;6.30;99.90;;;;;;5033749;28;20104;-70
2024/03/25 02:49:15;;;;;;;1999.90;999.90;;;6.30;99.90;;;;;;5033506;28;20021;-66
2024/03/25 02:51:40;;;;;;;1999.90;999.90;;;6.30;99.90;;;;;;5033564;28;20477;-66
2024/03/25 02:54:06;;;;;;;1999.90;999.90;;;6.30;99.90;;;;;;5033586;28;20014;-66
2024/03/25 02:56:31;;;;;;;1999.90;999.90;;;6.30;99.90;;;;;;5033409;28;20458;-70
2024/03/25 02:58:57;;;;;;;1999.90;999.90;;;6.30;99.90;;;;;;5033642;28;20021;-70
2024/03/25 03:01:23;;;;;;;1999.90;999.90;;;6.30;99.90;;;;;;5033248;28;20030;-66
2024/03/25 03:03:48;;;;;;;1999.90;999.90;;;6.20;99.90;;;;;;5033448;28;20037;-66
2024/03/25 03:06:14;;;;;;;1999.90;999.90;;;6.20;99.90;;;;;;5032958;28;20108;-66
2024/03/25 03:08:39;;;;;;;1999.90;999.90;;;6.10;99.90;;;;;;5032715;28;20022;-66
2024/03/25 03:11:05;;;;;;;1999.90;999.90;;;6.10;99.90;;;;;;5033473;28;20550;-70
2024/03/25 03:13:30;;;;;;;1999.90;999.90;;;6.10;99.90;;;;;;5033180;28;20029;-66
2024/03/25 03:15:56;;;;;;;1999.90;999.90;;;6.10;99.90;;;;;;5033157;28;20443;-66
2024/03/25 03:18:22;;;;;;;1999.90;999.90;;;6.10;99.90;;;;;;5032899;28;20041;-66
2024/03/25 03:20:49;;;;;;;1999.90;999.90;;;6.10;99.90;;;;;;5033138;28;20409;-70
2024/03/25 03:23:14;;;;;;;1999.90;999.90;;;6.10;99.90;;;;;;5032891;28;20037;-66
2024/03/25 03:25:41;;;;;;;1999.90;999.90;;;6.20;99.90;;;;;;5033059;28;20052;-66
2024/03/25 03:28:06;;;;;;;1999.90;999.90;;;6.20;99.90;;;;;;5033095;28;20457;-67
2024/03/25 03:30:32;;;;;;;1999.90;999.90;;;6.20;99.90;;;;;;5033003;28;20049;-66
2024/03/25 03:32:58;;;;;;;1999.90;999.90;;;6.10;99.90;;;;;;5032694;28;20091;-66
2024/03/25 03:35:23;;;;;;;1999.90;999.90;;;6.10;99.90;;;;;;5032316;28;20439;-66
2024/03/25 03:37:49;;;;;;;1999.90;999.90;;;6.00;99.90;;;;;;5032773;28;20037;-66
2024/03/25 03:40:14;;;;;;;1999.90;999.90;;;5.90;99.90;;;;;;5032613;28;20029;-67
2024/03/25 03:42:40;;;;;;;1999.90;999.90;;;5.90;99.90;;;;;;5032574;28;20120;-66
2024/03/25 03:45:08;;;;;;;1999.90;999.90;;;5.90;99.90;;;;;;5032733;28;20088;-66
2024/03/25 03:47:33;;;;;;;1999.90;999.90;;;5.90;99.90;;;;;;5032931;28;20037;-70
2024/03/25 03:49:59;;;;;;;1999.90;999.90;;;5.80;99.90;;;;;;5032796;28;20018;-68
2024/03/25 03:52:24;;;;;;;1999.90;999.90;;;5.80;99.90;;;;;;5032736;28;20026;-66
2024/03/25 03:54:50;;;;;;;1999.90;999.90;;;5.90;99.90;;;;;;5032762;28;20075;-70
2024/03/25 03:57:16;;;;;;;1999.90;999.90;;;6.00;99.90;;;;;;5032530;28;20083;-66
2024/03/25 03:59:41;;;;;;;1999.90;999.90;;;6.00;99.90;;;;;;5032700;28;20071;-66
2024/03/25 04:02:08;;;;;;;1999.90;999.90;;;6.10;99.90;;;;;;5032727;28;20442;-70
2024/03/25 04:04:34;;;;;;;1999.90;999.90;;;6.10;99.90;;;;;;5032509;28;20030;-66
2024/03/25 04:07:02;;;;;;;1999.90;999.90;;;6.10;99.90;;;;;;5031931;28;20022;-66
2024/03/25 04:09:29;;;;;;;1999.90;999.90;;;6.10;99.90;;;;;;5032254;28;20049;-70
2024/03/25 04:11:55;;;;;;;1999.90;999.90;;;6.10;99.90;;;;;;5032722;28;20030;-66
2024/03/25 04:14:20;;;;;;;1999.90;999.90;;;6.10;99.90;;;;;;5032447;28;20022;-66
2024/03/25 04:16:47;;;;;;;1999.90;999.90;;;6.10;99.90;;;;;;5032658;28;20037;-66
2024/03/25 04:19:13;;;;;;;1999.90;999.90;;;6.20;99.90;;;;;;5032244;28;20049;-66
2024/03/25 04:21:39;;;;;;;1999.90;999.90;;;6.20;99.90;;;;;;5032229;28;20392;-66
2024/03/25 04:24:05;;;;;;;1999.90;999.90;;;6.20;99.90;;;;;;5032092;28;20022;-66
2024/03/25 04:26:31;;;;;;;1999.90;999.90;;;6.30;99.90;;;;;;5032320;28;20618;-66
2024/03/25 04:28:57;;;;;;;1999.90;999.90;;;6.30;99.90;;;;;;5032392;28;20049;-70
2024/03/25 04:31:23;;;;;;;1999.90;999.90;;;6.40;99.90;;;;;;5031999;28;20469;-69
2024/03/25 04:33:48;;;;;;;1999.90;999.90;;;6.40;99.90;;;;;;5032224;28;20026;-66
2024/03/25 04:36:14;;;;;;;1999.90;999.90;;;6.40;99.90;;;;;;5031969;28;20044;-66
2024/03/25 04:38:39;;;;;;;1999.90;999.90;;;6.50;99.90;;;;;;5032173;28;20033;-66
2024/03/25 04:41:05;;;;;;;1999.90;999.90;;;6.50;99.90;;;;;;5032479;28;20033;-66
2024/03/25 04:43:31;;;;;;;1999.90;999.90;;;6.50;99.90;;;;;;5032075;28;20037;-66
2024/03/25 04:46:01;;;;;;;1999.90;999.90;;;6.60;99.90;;;;;;5033004;28;20105;-66
2024/03/25 04:48:26;;;;;;;1999.90;999.90;;;6.60;99.90;;;;;;5035551;28;20503;-66
2024/03/25 04:50:52;;;;;;;1999.90;999.90;;;6.60;99.90;;;;;;5036175;28;20029;-66
2024/03/25 04:53:17;;;;;;;1999.90;999.90;;;6.60;99.90;;;;;;5035756;28;20116;-66
2024/03/25 04:55:43;;;;;;;1999.90;999.90;;;6.60;99.90;;;;;;5035650;28;20101;-66
2024/03/25 04:58:09;;;;;;;1999.90;999.90;;;6.60;99.90;;;;;;5036151;28;20030;-66
2024/03/25 05:00:34;;;;;;;1999.90;999.90;;;6.60;99.90;;;;;;5035425;28;20438;-66
2024/03/25 05:03:00;;;;;;;1999.90;999.90;;;6.70;99.90;;;;;;5035460;28;20018;-66
2024/03/25 05:05:25;;;;;;;1999.90;999.90;;;6.70;99.90;;;;;;5035521;28;20022;-66
2024/03/25 05:07:51;;;;;;;1999.90;999.90;;;6.80;99.90;;;;;;5035942;28;20028;-66
2024/03/25 05:10:17;;;;;;;1999.90;999.90;;;6.80;99.90;;;;;;5035461;28;20029;-66
2024/03/25 05:12:44;;;;;;;1999.90;999.90;;;6.90;99.90;;;;;;5035462;28;20032;-66
2024/03/25 05:15:10;;;;;;;1999.90;999.90;;;6.90;99.90;;;;;;5035233;28;20065;-66
2024/03/25 05:17:36;;;;;;;1999.90;999.90;;;7.00;99.90;;;;;;5035367;28;20115;-66
2024/03/25 05:20:04;;;;;;;1999.90;999.90;;;7.10;99.90;;;;;;5035505;28;20029;-70
2024/03/25 05:22:30;;;;;;;1999.90;999.90;;;7.00;99.90;;;;;;5034926;28;20034;-70
2024/03/25 05:24:56;;;;;;;1999.90;999.90;;;7.00;99.90;;;;;;5034954;28;20033;-66
2024/03/25 05:27:21;;;;;;;1999.90;999.90;;;7.00;99.90;;;;;;5035113;28;20022;-66
2024/03/25 05:29:49;;;;;;;1999.90;999.90;;;6.90;99.90;;;;;;5034469;28;20484;-66
2024/03/25 05:32:16;;;;;;;1999.90;999.90;;;6.80;99.90;;;;;;5035193;28;20080;-66
2024/03/25 05:34:42;;;;;;;1999.90;999.90;;;6.80;99.90;;;;;;5034949;28;20037;-66
2024/03/25 05:37:07;;;;;;;1999.90;999.90;;;6.70;99.90;;;;;;5034547;28;20033;-66
2024/03/25 05:39:33;;;;;;;1999.90;999.90;;;6.70;99.90;;;;;;5035192;28;20025;-66
2024/03/25 05:41:58;;;;;;;1999.90;999.90;;;6.70;99.90;;;;;;5034852;28;20073;-66
2024/03/25 05:44:24;;;;;;;1999.90;999.90;;;6.60;99.90;;;;;;5035021;28;20025;-66
2024/03/25 05:46:50;;;;;;;1999.90;999.90;;;6.50;99.90;;;;;;5035182;28;20056;-66
2024/03/25 05:49:15;;;;;;;1999.90;999.90;;;6.50;99.90;;;;;;5034787;28;20428;-66
2024/03/25 05:51:41;;;;;;;1999.90;999.90;;;6.50;99.90;;;;;;5033570;28;20021;-70
2024/03/25 05:54:06;;;;;;;1999.90;999.90;;;6.40;99.90;;;;;;5034888;28;20028;-66
2024/03/25 05:56:32;;;;;;;1999.90;999.90;;;6.40;99.90;;;;;;5034897;28;20018;-66
2024/03/25 05:58:58;;;;;;;1999.90;999.90;;;6.40;99.90;;;;;;5034072;28;20481;-66
2024/03/25 06:01:24;;;;;;;1999.90;999.90;;;6.40;99.90;;;;;;5032831;28;20029;-69
2024/03/25 06:03:49;;;;;;;1999.90;999.90;;;6.30;99.90;;;;;;5034028;28;20036;-66
2024/03/25 06:06:15;;;;;;;1999.90;999.90;;;6.30;99.90;;;;;;5037923;28;20017;-66
2024/03/25 06:08:41;;;;;;;1999.90;999.90;;;6.30;99.90;;;;;;5053983;28;20040;-66
2024/03/25 06:11:06;;;;;;;1999.90;999.90;;;6.30;99.90;;;;;;5054236;28;20017;-66
2024/03/25 06:13:32;;;;;;;1999.90;999.90;;;6.30;99.90;;;;;;5036916;28;20041;-66
2024/03/25 06:15:58;;;;;;;1999.90;999.90;;;6.30;99.90;;;;;;5034178;28;20037;-66
2024/03/25 06:18:24;;;;;;;1999.90;999.90;;;6.30;99.90;;;;;;5033889;28;20057;-66
2024/03/25 06:20:50;;;;;;;1999.90;999.90;;;6.40;99.90;;;;;;5033893;28;20048;-66
2024/03/25 06:23:26;;;;;;;1999.90;999.90;;;6.40;99.90;;;;;;5033577;28;20041;-66
2024/03/25 06:25:52;;;;;;;1999.90;999.90;;;6.30;99.90;;;;;;5034004;28;20017;-66
2024/03/25 06:28:19;;;;;;;1999.90;999.90;;;6.30;99.90;;;;;;5033312;28;20021;-66
2024/03/25 06:36:15;;;;;;;1999.90;999.90;;;6.40;99.90;;;;;;5048170;28;20588;-66
2024/03/25 06:38:41;;;;;;;1999.90;999.90;;;6.50;99.90;;;;;;5028813;28;20082;-66
2024/03/25 06:41:07;;;;;;;1999.90;999.90;;;6.50;99.90;;;;;;5030787;28;20056;-66
2024/03/25 06:43:32;;;;;;;1999.90;999.90;;;6.60;99.90;;;;;;5033979;28;20516;-66
2024/03/25 06:45:58;;;;;;;1999.90;999.90;;;6.60;99.90;;;;;;5037535;28;20029;-65
2024/03/25 06:48:24;;;;;;;1999.90;999.90;;;6.70;99.90;;;;;;5041171;28;20459;-68
2024/03/25 06:50:57;;;;;;;1999.90;999.90;;;6.70;99.90;;;;;;5032873;28;20044;-70
2024/03/25 06:53:23;;;;;;;1999.90;999.90;;;6.70;99.90;;;;;;5038388;28;20033;-70
2024/03/25 06:56:06;;;;;;;1999.90;999.90;;;6.80;99.90;;;;;;5032385;28;20036;-66
2024/03/25 06:58:32;;;;;;;1999.90;999.90;;;6.80;99.90;;;;;;5038763;28;20411;-70
2024/03/25 07:01:05;;;;;;;1999.90;999.90;;;6.90;99.90;;;;;;5032916;28;20033;-70
2024/03/25 07:03:31;;;;;;;1999.90;999.90;;;7.00;99.90;;;;;;5045127;28;20472;-70
2024/03/25 07:05:57;;;;;;;1999.90;999.90;;;7.10;99.90;;;;;;5044067;28;20093;-66
2024/03/25 07:08:23;;;;;;;1999.90;999.90;;;7.10;99.90;;;;;;5030251;28;20030;-67
2024/03/25 07:10:48;;;;;;;1999.90;999.90;;;7.20;99.90;;;;;;5032056;28;20031;-70
2024/03/25 07:13:14;;;;;;;1999.90;999.90;;;7.30;99.90;;;;;;5032316;28;20041;-66
2024/03/25 07:15:40;;;;;;;1999.90;999.90;;;7.40;99.90;;;;;;5029768;28;20099;-66
2024/03/25 07:18:06;;;;;;;1999.90;999.90;;;7.40;99.90;;;;;;5030053;28;20181;-66
2024/03/25 07:20:32;;;;;;;1999.90;999.90;;;7.50;99.90;;;;;;5036027;28;20048;-66
2024/03/25 07:22:57;;;;;;;1999.90;999.90;;;7.50;99.90;;;;;;5031923;28;20104;-67
2024/03/25 07:25:24;;;;;;;1999.90;999.90;;;7.60;99.90;;;;;;5031117;28;20032;-70
2024/03/25 07:27:50;;;;;;;1999.90;999.90;;;7.60;99.90;;;;;;5030294;28;20104;-69
2024/03/25 07:30:16;;;;;;;1999.90;999.90;;;7.60;99.90;;;;;;5031170;28;20071;-66
2024/03/25 07:32:42;;;;;;;1999.90;999.90;;;7.70;99.90;;;;;;5033241;28;20056;-69
2024/03/25 07:35:09;;;;;;;1999.90;999.90;;;7.80;99.90;;;;;;5029392;28;20041;-69
2024/03/25 07:37:35;;;;;;;1999.90;999.90;;;7.90;99.90;;;;;;5030844;28;20021;-69
2024/03/25 07:40:01;;;;;;;1999.90;999.90;;;8.10;99.90;;;;;;5039459;28;20578;-65
2024/03/25 07:42:27;;;;;;;1999.90;999.90;;;8.10;99.90;;;;;;5029803;28;20041;-66
2024/03/25 07:44:52;;;;;;;1999.90;999.90;;;8.10;99.90;;;;;;5030457;28;20041;-66
2024/03/25 07:47:18;;;;;;;1999.90;999.90;;;8.20;99.90;;;;;;5029382;28;20029;-67
2024/03/25 07:49:44;;;;;;;1999.90;999.90;;;8.40;99.90;;;;;;5028306;28;20470;-69
2024/03/25 07:52:10;;;;;;;1999.90;999.90;;;8.50;99.90;;;;;;5031173;28;20631;-66
2024/03/25 07:54:37;;;;;;;1999.90;999.90;;;8.60;99.90;;;;;;5049166;28;20476;-66
2024/03/25 07:57:04;;;;;;;1999.90;999.90;;;8.80;99.90;;;;;;5049514;28;20078;-70
2024/03/25 07:59:29;;;;;;;1999.90;999.90;;;9.10;99.90;;;;;;5026770;28;20555;-70
2024/03/25 08:01:55;;;;;;;1999.90;999.90;;;9.20;99.90;;;;;;5028222;28;20026;-67
2024/03/25 08:04:21;;;;;;;1999.90;999.90;;;9.70;99.90;;;;;;5031542;28;20036;-70
2024/03/25 08:06:46;;;;;;;1999.90;999.90;;;10.20;99.90;;;;;;5029435;28;20033;-66
2024/03/25 08:09:15;;;;;;;1999.90;999.90;;;10.20;99.90;;;;;;5030323;28;20054;-67
2024/03/25 08:11:43;;;;;;;1999.90;999.90;;;10.70;99.90;;;;;;5032417;28;20087;-66
2024/03/25 08:14:09;;;;;;;1999.90;999.90;;;10.70;99.90;;;;;;5041287;28;20028;-67
2024/03/25 08:16:35;;;;;;;1999.90;999.90;;;11.10;99.90;;;;;;5029895;28;20045;-70
2024/03/25 08:19:01;;;;;;;1999.90;999.90;;;11.50;99.90;;;;;;5029786;28;20064;-70
2024/03/25 08:21:26;;;;;;;1999.90;999.90;;;11.60;99.90;;;;;;5031526;28;20037;-66
2024/03/25 08:23:52;;;;;;;1999.90;999.90;;;11.50;99.90;;;;;;5044282;28;20057;-66
2024/03/25 08:26:18;;;;;;;1999.90;999.90;;;11.00;99.90;;;;;;5033616;28;20091;-66
2024/03/25 08:28:43;;;;;;;1999.90;999.90;;;10.70;99.90;;;;;;5039012;28;20488;-70
2024/03/25 08:31:09;;;;;;;1999.90;999.90;;;10.90;99.90;;;;;;5033588;28;20037;-66
2024/03/25 08:33:35;;;;;;;1999.90;999.90;;;11.30;99.90;;;;;;5033971;28;20036;-71
2024/03/25 08:36:00;;;;;;;1999.90;999.90;;;11.60;99.90;;;;;;5033394;28;20061;-70
2024/03/25 08:38:26;;;;;;;1999.90;999.90;;;11.40;99.90;;;;;;5031338;28;20030;-70
2024/03/25 08:40:52;;;;;;;1999.90;999.90;;;11.50;99.90;;;;;;5033995;28;20480;-67
2024/03/25 08:43:18;;;;;;;1999.90;999.90;;;11.90;99.90;;;;;;5033632;28;20025;-70
2024/03/25 08:45:46;;;;;;;1999.90;999.90;;;12.30;99.90;;;;;;5033231;28;20480;-66
2024/03/25 08:48:11;;;;;;;1999.90;999.90;;;12.30;99.90;;;;;;5041007;28;20029;-66
2024/03/25 08:50:37;;;;;;;1999.90;999.90;;;12.50;99.90;;;;;;5048834;28;20035;-66
2024/03/25 08:53:03;;;;;;;1999.90;999.90;;;12.70;99.90;;;;;;5044889;28;20045;-66
2024/03/25 08:55:30;;;;;;;1999.90;999.90;;;13.10;99.90;;;;;;5035796;28;20038;-70
2024/03/25 08:57:58;;;;;;;1999.90;999.90;;;12.80;99.90;;;;;;5034353;28;20487;-66
2024/03/25 09:00:27;;;;;;;1999.90;999.90;;;12.60;99.90;;;;;;5033742;28;20127;-70
2024/03/25 09:02:53;;;;;;;1999.90;999.90;;;12.30;99.90;;;;;;5033929;28;20388;-67
2024/03/25 09:05:19;;;;;;;1999.90;999.90;;;11.80;99.90;;;;;;5033629;28;20439;-70
2024/03/25 09:07:45;;;;;;;1999.90;999.90;;;11.70;99.90;;;;;;5024928;28;20014;-70
2024/03/25 09:12:55;;;;;;;1999.90;999.90;;;12.00;99.90;;;;;;5028579;28;20056;-66
2024/03/25 09:15:21;;;;;;;1999.90;999.90;;;12.20;99.90;;;;;;5033500;28;20481;-69
2024/03/25 09:17:46;;;;;;;1999.90;999.90;;;12.40;99.90;;;;;;5033141;28;20042;-66
2024/03/25 09:20:21;;;;;;;1999.90;999.90;;;12.50;99.90;;;;;;5033392;28;20069;-66
2024/03/25 09:22:48;;;;;;;1999.90;999.90;;;12.30;99.90;;;;;;5033042;28;20021;-69
2024/03/25 09:25:15;;;;;;;1999.90;999.90;;;12.20;99.90;;;;;;5033994;28;20393;-70
2024/03/25 09:27:40;;;;;;;1999.90;999.90;;;12.40;99.90;;;;;;5043487;28;20448;-70
2024/03/25 09:30:08;;;;;;;1999.90;999.90;;;12.10;99.90;;;;;;5041826;28;20018;-70
2024/03/25 09:32:35;;;;;;;1999.90;999.90;;;12.20;99.90;;;;;;5036081;28;20040;-69
2024/03/25 09:35:00;;;;;;;1999.90;999.90;;;11.90;99.90;;;;;;5032588;28;20083;-69
2024/03/25 09:37:26;;;;;;;1999.90;999.90;;;12.20;99.90;;;;;;5031898;28;20056;-70
2024/03/25 09:39:52;;;;;;;1999.90;999.90;;;12.10;99.90;;;;;;5029829;28;20033;-66
2024/03/25 09:42:31;;;;;;;1999.90;999.90;;;12.10;99.90;;;;;;5030782;28;20033;-66
2024/03/25 09:44:56;;;;;;;1999.90;999.90;;;12.00;99.90;;;;;;5031607;28;20477;-66
2024/03/25 09:47:22;;;;;;;1999.90;999.90;;;11.90;99.90;;;;;;5028888;28;20044;-69
2024/03/25 09:49:49;;;;;;;1999.90;999.90;;;12.00;99.90;;;;;;5032782;28;20531;-70
2024/03/25 09:52:15;;;;;;;1999.90;999.90;;;12.10;99.90;;;;;;5033059;28;20034;-70
2024/03/25 09:54:41;;;;;;;1999.90;999.90;;;12.30;99.90;;;;;;5030909;28;20156;-70
2024/03/25 09:57:08;;;;;;;1999.90;999.90;;;12.50;99.90;;;;;;5028129;28;20033;-66
2024/03/25 09:59:34;;;;;;;1999.90;999.90;;;12.60;99.90;;;;;;5029429;28;20061;-69
2024/03/25 10:02:01;;;;;;;1999.90;999.90;;;12.30;99.90;;;;;;5027963;28;20060;-70
2024/03/25 10:04:27;;;;;;;1999.90;999.90;;;12.40;99.90;;;;;;5020335;28;20505;-69
2024/03/25 10:06:53;;;;;;;1999.90;999.90;;;12.80;99.90;;;;;;5030101;28;20092;-66
2024/03/25 10:09:22;;;;;;;1999.90;999.90;;;13.20;99.90;;;;;;5032104;28;20029;-70
2024/03/25 10:11:51;;;;;;;1999.90;999.90;;;13.30;99.90;;;;;;5030967;28;20103;-66
2024/03/25 10:14:17;;;;;;;1999.90;999.90;;;13.20;99.90;;;;;;5024298;28;20435;-71
2024/03/25 10:16:43;;;;;;;1999.90;999.90;;;13.10;99.90;;;;;;5031079;28;20021;-70
2024/03/25 10:19:09;;;;;;;1999.90;999.90;;;13.10;99.90;;;;;;5031223;28;20137;-66
2024/03/25 10:21:35;;;;;;;1999.90;999.90;;;12.80;99.90;;;;;;5031579;28;20021;-71
2024/03/25 10:24:03;;;;;;;1999.90;999.90;;;12.50;99.90;;;;;;5031372;28;20473;-66
2024/03/25 10:26:31;;;;;;;1999.90;999.90;;;12.50;99.90;;;;;;5029227;28;20483;-70
2024/03/25 10:29:07;;;;;;;1999.90;999.90;;;12.80;99.90;;;;;;5033696;28;20024;-69
2024/03/25 10:31:34;;;;;;;1999.90;999.90;;;12.80;99.90;;;;;;5024303;28;20496;-69
2024/03/25 10:34:00;;;;;;;1999.90;999.90;;;12.60;99.90;;;;;;5030854;28;20037;-66
2024/03/25 10:36:26;;;;;;;1999.90;999.90;;;12.50;99.90;;;;;;5030384;28;20025;-66
2024/03/25 10:38:56;;;;;;;1999.90;999.90;;;12.50;99.90;;;;;;5030898;28;20034;-70
2024/03/25 10:41:22;;;;;;;1999.90;999.90;;;12.70;99.90;;;;;;5030742;28;20354;-70
2024/03/25 10:43:49;;;;;;;1999.90;999.90;;;12.60;99.90;;;;;;5028126;28;20033;-70
2024/03/25 10:46:22;;;;;;;1999.90;999.90;;;12.90;99.90;;;;;;5031465;28;20445;-67
2024/03/25 10:48:54;;;;;;;1999.90;999.90;;;13.00;99.90;;;;;;5032383;28;20316;-66
2024/03/25 10:51:21;;;;;;;1999.90;999.90;;;12.90;99.90;;;;;;5030809;28;20030;-66
2024/03/25 10:53:51;;;;;;;1999.90;999.90;;;12.90;99.90;;;;;;5032530;28;20036;-70
2024/03/25 10:56:20;;;;;;;1999.90;999.90;;;12.90;99.90;;;;;;5034126;28;20029;-66
2024/03/25 10:58:48;;;;;;;1999.90;999.90;;;13.00;99.90;;;;;;5027913;28;20033;-70
2024/03/25 11:01:15;;;;;;;1999.90;999.90;;;13.30;99.90;;;;;;5030394;28;20120;-66
2024/03/25 11:03:41;;;;;;;1999.90;999.90;;;13.40;99.90;;;;;;5026398;28;20025;-66
2024/03/25 11:06:06;;;;;;;1999.90;999.90;;;13.50;99.90;;;;;;5030188;28;20033;-70
2024/03/25 11:08:32;;;;;;;1999.90;999.90;;;13.50;99.90;;;;;;5030339;28;20071;-70
2024/03/25 11:10:58;;;;;;;1999.90;999.90;;;13.30;99.90;;;;;;5030151;28;20423;-70
2024/03/25 11:13:26;;;;;;;1999.90;999.90;;;13.50;99.90;;;;;;5030541;28;20033;-66
2024/03/25 11:15:52;;;;;;;1999.90;999.90;;;13.70;99.90;;;;;;5029709;28;20411;-70
2024/03/25 11:18:23;;;;;;;1999.90;999.90;;;14.00;99.90;;;;;;5038926;28;20045;-70
2024/03/25 11:21:07;;;;;;;1999.90;999.90;;;14.00;99.90;;;;;;5036707;28;20112;-70
2024/03/25 11:23:52;;;;;;;1999.90;999.90;;;14.00;99.90;;;;;;5035078;28;20099;-67
2024/03/25 11:26:30;;;;;;;1999.90;999.90;;;14.30;99.90;;;;;;5029023;28;20036;-66
2024/03/25 11:28:56;;;;;;;1999.90;999.90;;;14.10;99.90;;;;;;5031277;28;20024;-70
2024/03/25 11:31:24;;;;;;;1999.90;999.90;;;14.00;99.90;;;;;;5030436;28;20021;-70
2024/03/25 11:33:50;;;;;;;1999.90;999.90;;;13.90;99.90;;;;;;5027885;28;20095;-70
2024/03/25 11:36:18;;;;;;;1999.90;999.90;;;13.80;99.90;;;;;;5030204;28;20503;-66
2024/03/25 11:38:44;;;;;;;1999.90;999.90;;;14.10;99.90;;;;;;5030655;28;20064;-70
2024/03/25 11:41:11;;;;;;;1999.90;999.90;;;14.20;99.90;;;;;;5021042;28;20037;-67
2024/03/25 11:43:36;;;;;;;1999.90;999.90;;;14.20;99.90;;;;;;5031366;28;20116;-70
2024/03/25 11:46:02;;;;;;;1999.90;999.90;;;14.10;99.90;;;;;;5026637;28;20100;-66
2024/03/25 11:48:32;;;;;;;1999.90;999.90;;;14.00;99.90;;;;;;5029878;28;20036;-70
2024/03/25 11:50:58;;;;;;;1999.90;999.90;;;14.20;99.90;;;;;;5030173;28;20026;-66
2024/03/25 11:53:24;;;;;;;1999.90;999.90;;;14.20;99.90;;;;;;5032600;28;20104;-67
2024/03/25 11:55:49;;;;;;;1999.90;999.90;;;14.20;99.90;;;;;;5029815;28;20455;-67
2024/03/25 11:58:15;;;;;;;1999.90;999.90;;;14.20;99.90;;;;;;5028152;28;20080;-66
2024/03/25 12:00:53;;;;;;;1999.90;999.90;;;14.20;99.90;;;;;;5030300;28;20029;-70
2024/03/25 12:03:19;;;;;;;1999.90;999.90;;;14.20;99.90;;;;;;5028914;28;20064;-67
2024/03/25 12:05:45;;;;;;;1999.90;999.90;;;14.20;99.90;;;;;;5030008;28;21170;-71
2024/03/25 12:08:11;;;;;;;1999.90;999.90;;;14.50;99.90;;;;;;5028396;28;20029;-71
2024/03/25 12:13:23;;;;;;;1999.90;999.90;;;14.50;99.90;;;;;;5026260;28;20056;-68